createdAt,value
2022-09-27T00:00:58.115Z,54.49
2022-09-27T00:12:16.801Z,54.46
2022-09-27T00:13:48.349Z,54.48
2022-09-27T00:15:20.445Z,54.50
2022-09-27T00:16:52.052Z,54.79
2022-09-27T00:18:23.584Z,54.57
2022-09-27T00:19:58.015Z,54.75
2022-09-27T00:21:30.825Z,54.60
2022-09-27T00:23:02.479Z,54.67
2022-09-27T00:24:34.653Z,54.81
2022-09-27T00:26:06.408Z,54.55
2022-09-27T00:27:38.128Z,54.71
2022-09-27T00:29:10.800Z,54.70
2022-09-27T00:30:42.853Z,54.38
2022-09-27T00:32:14.723Z,54.49
2022-09-27T00:33:46.644Z,54.57
2022-09-27T00:35:18.222Z,54.63
2022-09-27T00:36:49.987Z,54.79
2022-09-27T00:38:21.625Z,54.98
2022-09-27T00:39:53.271Z,54.84
2022-09-27T00:41:26.025Z,54.90
2022-09-27T00:42:58.010Z,54.63
2022-09-27T00:44:29.844Z,54.79
2022-09-27T00:46:02.216Z,54.82
2022-09-27T00:47:57.336Z,54.67
2022-09-27T00:49:31.954Z,54.84
2022-09-27T00:51:04.234Z,54.93
2022-09-27T00:52:36.049Z,55.03
2022-09-27T00:54:07.788Z,55.01
2022-09-27T00:55:50.097Z,55.19
2022-09-27T00:57:21.773Z,55.32
2022-09-27T00:58:55.935Z,55.16
2022-09-27T01:00:27.537Z,55.47
2022-09-27T01:01:59.166Z,55.53
2022-09-27T01:03:53.724Z,55.42
2022-09-27T01:05:29.158Z,55.38
2022-09-27T01:07:00.960Z,55.54
2022-09-27T01:08:33.025Z,55.48
2022-09-27T01:10:05.081Z,55.54
2022-09-27T01:11:41.409Z,55.52
2022-09-27T01:13:24.016Z,55.74
2022-09-27T01:15:01.378Z,55.73
2022-09-27T01:16:33.086Z,55.76
2022-09-27T01:18:16.975Z,55.86
2022-09-27T01:19:52.006Z,55.92
2022-09-27T01:21:24.055Z,56.14
2022-09-27T01:22:55.845Z,56.08
2022-09-27T01:24:30.141Z,56.27
2022-09-27T01:26:05.381Z,56.17
2022-09-27T01:27:37.432Z,56.31
2022-09-27T01:29:23.679Z,56.24
2022-09-27T01:31:14.269Z,56.23
2022-09-27T01:32:52.100Z,56.31
2022-09-27T01:34:26.452Z,56.45
2022-09-27T01:36:22.011Z,56.44
2022-09-27T01:38:12.557Z,56.43
2022-09-27T01:39:56.827Z,56.25
2022-09-27T01:41:39.281Z,56.36
2022-09-27T01:43:17.286Z,56.49
2022-09-27T01:44:53.086Z,56.54
2022-09-27T01:46:45.022Z,56.73
2022-09-27T01:48:24.484Z,56.78
2022-09-27T01:49:56.128Z,56.98
2022-09-27T01:51:32.059Z,56.97
2022-09-27T01:53:04.624Z,57.10
2022-09-27T01:54:48.815Z,56.96
2022-09-27T01:56:33.761Z,57.15
2022-09-27T01:58:07.330Z,57.27
2022-09-27T01:59:43.665Z,57.06
2022-09-27T02:01:15.250Z,57.11
2022-09-27T02:02:50.998Z,57.06
2022-09-27T02:04:27.936Z,57.00
2022-09-27T02:06:01.788Z,56.98
2022-09-27T02:07:35.556Z,57.02
2022-09-27T02:09:16.340Z,57.29
2022-09-27T02:10:48.176Z,56.87
2022-09-27T02:12:24.157Z,57.06
2022-09-27T02:13:58.622Z,57.06
2022-09-27T02:15:30.384Z,57.05
2022-09-27T02:17:20.885Z,57.17
2022-09-27T02:18:52.394Z,57.29
2022-09-27T02:20:29.980Z,57.22
2022-09-27T02:22:10.728Z,57.29
2022-09-27T02:23:51.650Z,57.28
2022-09-27T02:25:32.772Z,57.36
2022-09-27T02:27:10.405Z,57.47
2022-09-27T02:28:50.121Z,57.38
2022-09-27T02:30:21.878Z,57.55
2022-09-27T02:31:53.498Z,57.66
2022-09-27T02:33:32.739Z,57.63
2022-09-27T02:35:09.446Z,57.66
2022-09-27T02:36:41.304Z,57.71
2022-09-27T02:38:13.179Z,57.71
2022-09-27T02:39:44.919Z,57.63
2022-09-27T02:41:16.957Z,57.74
2022-09-27T02:42:48.496Z,57.93
2022-09-27T02:44:22.772Z,57.84
2022-09-27T02:46:09.509Z,57.81
2022-09-27T02:48:04.831Z,57.99
2022-09-27T02:49:42.789Z,58.06
2022-09-27T02:51:17.376Z,58.08
2022-09-27T02:53:13.319Z,58.14
2022-09-27T02:54:47.245Z,58.09
2022-09-27T02:56:41.264Z,58.18
2022-09-27T02:58:17.467Z,58.25
2022-09-27T03:00:07.159Z,58.04
2022-09-27T03:02:00.251Z,58.19
2022-09-27T03:03:48.408Z,58.33
2022-09-27T03:05:25.661Z,58.42
2022-09-27T03:06:57.310Z,58.26
2022-09-27T03:08:28.947Z,58.29
2022-09-27T03:10:00.849Z,58.25
2022-09-27T03:11:33.739Z,58.34
2022-09-27T03:13:14.117Z,58.37
2022-09-27T03:14:45.782Z,58.41
2022-09-27T03:16:19.110Z,58.33
2022-09-27T03:17:50.841Z,58.33
2022-09-27T03:19:22.880Z,58.28
2022-09-27T03:20:54.957Z,58.27
2022-09-27T03:22:26.743Z,58.14
2022-09-27T03:23:58.415Z,58.06
2022-09-27T03:25:29.984Z,58.01
2022-09-27T03:27:01.730Z,57.99
2022-09-27T03:28:33.344Z,57.98
2022-09-27T03:30:06.388Z,58.05
2022-09-27T03:31:37.863Z,58.17
2022-09-27T03:33:09.602Z,58.18
2022-09-27T03:34:41.267Z,58.27
2022-09-27T03:36:13.488Z,58.19
2022-09-27T03:37:48.061Z,58.07
2022-09-27T03:39:19.601Z,58.09
2022-09-27T03:40:51.377Z,58.25
2022-09-27T03:42:23.062Z,58.03
2022-09-27T03:43:57.972Z,57.89
2022-09-27T03:45:31.986Z,57.89
2022-09-27T03:47:03.640Z,58.11
2022-09-27T03:48:35.280Z,58.04
2022-09-27T03:50:07.341Z,58.10
2022-09-27T03:51:44.991Z,58.01
2022-09-27T03:53:28.567Z,57.92
2022-09-27T03:55:02.383Z,58.17
2022-09-27T03:56:34.209Z,58.33
2022-09-27T03:58:07.194Z,58.49
2022-09-27T03:59:38.878Z,58.41
2022-09-27T04:01:12.263Z,58.34
2022-09-27T04:02:44.203Z,58.45
2022-09-27T04:04:16.016Z,58.32
2022-09-27T04:05:47.729Z,58.50
2022-09-27T04:07:19.716Z,58.60
2022-09-27T04:08:51.301Z,58.66
2022-09-27T04:10:22.849Z,58.44
2022-09-27T04:11:55.327Z,58.60
2022-09-27T04:13:26.996Z,58.73
2022-09-27T04:14:58.622Z,58.88
2022-09-27T04:16:30.285Z,58.74
2022-09-27T04:18:01.901Z,58.70
2022-09-27T04:19:33.664Z,58.71
2022-09-27T04:21:05.628Z,58.81
2022-09-27T04:22:44.325Z,58.66
2022-09-27T04:24:15.908Z,58.71
2022-09-27T04:25:47.808Z,58.72
2022-09-27T04:27:19.365Z,58.67
2022-09-27T04:28:54.461Z,58.67
2022-09-27T04:30:26.687Z,58.58
2022-09-27T04:31:58.389Z,58.60
2022-09-27T04:33:29.978Z,58.62
2022-09-27T04:35:20.468Z,58.29
2022-09-27T04:36:52.001Z,58.33
2022-09-27T04:38:24.315Z,58.56
2022-09-27T04:39:55.929Z,58.58
2022-09-27T04:41:28.436Z,58.64
2022-09-27T04:43:00.762Z,58.56
2022-09-27T04:44:32.464Z,58.35
2022-09-27T04:46:04.601Z,58.36
2022-09-27T04:47:36.240Z,58.33
2022-09-27T04:49:07.925Z,58.46
2022-09-27T04:50:40.510Z,58.41
2022-09-27T04:52:12.115Z,58.48
2022-09-27T04:53:44.681Z,58.41
2022-09-27T04:55:16.921Z,58.58
2022-09-27T04:56:49.071Z,58.60
2022-09-27T04:58:21.239Z,58.61
2022-09-27T04:59:53.097Z,58.89
2022-09-27T05:01:24.858Z,58.87
2022-09-27T05:02:56.688Z,59.09
2022-09-27T05:04:28.363Z,58.93
2022-09-27T05:06:00.987Z,58.99
2022-09-27T05:07:34.021Z,59.05
2022-09-27T05:09:05.839Z,58.82
2022-09-27T05:10:37.644Z,58.74
2022-09-27T05:12:09.518Z,58.83
2022-09-27T05:13:42.005Z,58.84
2022-09-27T05:15:13.734Z,59.01
2022-09-27T05:16:45.528Z,58.83
2022-09-27T05:18:18.231Z,58.97
2022-09-27T05:19:50.245Z,59.09
2022-09-27T05:21:21.832Z,58.93
2022-09-27T05:22:53.468Z,59.19
2022-09-27T05:24:25.036Z,59.09
2022-09-27T05:25:57.629Z,59.09
2022-09-27T05:27:31.318Z,59.02
2022-09-27T05:29:03.729Z,59.00
2022-09-27T05:30:37.012Z,58.93
2022-09-27T05:32:09.243Z,59.34
2022-09-27T05:33:41.072Z,59.33
2022-09-27T05:35:13.256Z,59.42
2022-09-27T05:36:44.774Z,59.41
2022-09-27T05:38:16.511Z,59.52
2022-09-27T05:39:48.916Z,59.63
2022-09-27T05:41:20.475Z,59.67
2022-09-27T05:42:53.042Z,59.75
2022-09-27T05:44:26.230Z,59.53
2022-09-27T05:45:58.999Z,59.47
2022-09-27T05:47:30.715Z,59.27
2022-09-27T05:49:02.329Z,59.42
2022-09-27T05:50:34.095Z,59.46
2022-09-27T05:52:06.074Z,59.55
2022-09-27T05:53:37.922Z,59.54
2022-09-27T05:55:09.425Z,59.62
2022-09-27T05:56:40.994Z,59.76
2022-09-27T05:58:16.521Z,59.63
2022-09-27T05:59:48.561Z,59.48
2022-09-27T06:01:20.376Z,59.48
2022-09-27T06:03:04.547Z,59.63
2022-09-27T06:04:36.473Z,59.67
2022-09-27T06:06:08.058Z,59.77
2022-09-27T06:07:40.982Z,59.70
2022-09-27T06:09:18.544Z,59.64
2022-09-27T06:10:50.185Z,59.44
2022-09-27T06:12:21.910Z,59.80
2022-09-27T06:13:53.789Z,59.77
2022-09-27T06:15:25.927Z,59.66
2022-09-27T06:16:58.403Z,59.67
2022-09-27T06:18:32.997Z,59.90
2022-09-27T06:20:05.007Z,60.00
2022-09-27T06:21:38.265Z,60.00
2022-09-27T06:23:10.926Z,59.98
2022-09-27T06:24:42.677Z,60.08
2022-09-27T06:26:14.327Z,59.87
2022-09-27T06:27:46.036Z,59.92
2022-09-27T06:29:17.688Z,59.72
2022-09-27T06:30:51.176Z,59.77
2022-09-27T06:32:23.706Z,59.97
2022-09-27T06:33:55.365Z,60.11
2022-09-27T06:35:27.469Z,60.01
2022-09-27T06:36:59.432Z,60.21
2022-09-27T06:38:31.142Z,60.33
2022-09-27T06:40:03.828Z,60.03
2022-09-27T06:41:36.209Z,60.06
2022-09-27T06:43:09.449Z,60.09
2022-09-27T06:44:48.152Z,59.99
2022-09-27T06:46:25.182Z,59.84
2022-09-27T06:48:01.776Z,59.91
2022-09-27T06:49:33.489Z,59.73
2022-09-27T06:51:05.489Z,59.64
2022-09-27T06:52:37.320Z,59.72
2022-09-27T06:54:09.161Z,59.86
2022-09-27T06:55:41.921Z,59.92
2022-09-27T06:57:34.020Z,59.87
2022-09-27T06:59:24.279Z,60.07
2022-09-27T07:00:55.928Z,59.80
2022-09-27T07:02:27.953Z,59.82
2022-09-27T07:03:59.569Z,59.93
2022-09-27T07:05:31.229Z,59.78
2022-09-27T07:07:03.230Z,59.77
2022-09-27T07:08:36.207Z,59.60
2022-09-27T07:10:09.988Z,59.45
2022-09-27T07:11:46.659Z,59.57
2022-09-27T07:13:22.723Z,59.46
2022-09-27T07:14:54.455Z,59.56
2022-09-27T07:16:26.055Z,59.54
2022-09-27T07:18:00.571Z,59.47
2022-09-27T07:19:32.219Z,59.54
2022-09-27T07:21:03.817Z,59.78
2022-09-27T07:22:45.270Z,59.94
2022-09-27T07:24:16.834Z,60.10
2022-09-27T07:25:49.824Z,60.21
2022-09-27T07:27:24.979Z,60.02
2022-09-27T07:28:57.199Z,60.11
2022-09-27T07:30:28.989Z,60.15
2022-09-27T07:32:00.693Z,60.44
2022-09-27T07:33:43.047Z,60.58
2022-09-27T07:35:17.991Z,60.59
2022-09-27T07:36:51.532Z,60.95
2022-09-27T07:38:23.281Z,60.90
2022-09-27T07:39:55.246Z,60.94
2022-09-27T07:41:26.815Z,60.94
2022-09-27T07:42:58.759Z,61.29
2022-09-27T07:44:30.276Z,61.40
2022-09-27T07:46:02.702Z,61.21
2022-09-27T07:47:35.083Z,61.39
2022-09-27T07:49:07.057Z,61.48
2022-09-27T07:50:38.671Z,61.36
2022-09-27T07:52:10.289Z,61.37
2022-09-27T07:53:41.894Z,61.39
2022-09-27T07:55:13.951Z,61.18
2022-09-27T07:56:45.728Z,61.13
2022-09-27T07:58:17.561Z,61.17
2022-09-27T07:59:49.544Z,61.30
2022-09-27T08:01:21.508Z,61.20
2022-09-27T08:02:53.079Z,61.13
2022-09-27T08:04:24.606Z,61.16
2022-09-27T08:05:56.228Z,60.90
2022-09-27T08:07:28.426Z,60.89
2022-09-27T08:09:00.445Z,60.97
2022-09-27T08:10:32.401Z,61.03
2022-09-27T08:12:04.869Z,61.09
2022-09-27T08:13:37.836Z,61.15
2022-09-27T08:15:09.721Z,61.15
2022-09-27T08:16:41.869Z,61.09
2022-09-27T08:18:13.595Z,61.12
2022-09-27T08:19:45.646Z,61.08
2022-09-27T08:21:17.796Z,61.21
2022-09-27T08:22:49.309Z,61.34
2022-09-27T08:24:21.304Z,61.43
2022-09-27T08:25:53.726Z,61.48
2022-09-27T08:27:25.312Z,61.55
2022-09-27T08:28:57.430Z,61.48
2022-09-27T08:30:29.597Z,61.32
2022-09-27T08:32:01.509Z,61.33
2022-09-27T08:33:35.757Z,61.14
2022-09-27T08:35:11.244Z,61.23
2022-09-27T08:36:46.028Z,61.17
2022-09-27T08:38:17.867Z,60.95
2022-09-27T08:39:49.520Z,61.04
2022-09-27T08:41:24.588Z,60.78
2022-09-27T08:43:02.568Z,60.57
2022-09-27T08:44:38.052Z,60.66
2022-09-27T08:46:28.370Z,60.62
2022-09-27T08:48:00.999Z,60.72
2022-09-27T08:49:41.561Z,60.40
2022-09-27T08:51:13.663Z,60.46
2022-09-27T08:53:03.788Z,60.35
2022-09-27T08:54:35.424Z,60.43
2022-09-27T08:56:08.045Z,60.14
2022-09-27T08:57:39.697Z,60.17
2022-09-27T08:59:14.899Z,60.20
2022-09-27T09:00:46.484Z,60.18
2022-09-27T09:02:19.301Z,59.98
2022-09-27T09:03:57.279Z,60.22
2022-09-27T09:05:32.481Z,60.14
2022-09-27T09:07:06.893Z,60.04
2022-09-27T09:08:43.634Z,59.92
2022-09-27T09:10:40.615Z,60.05
2022-09-27T09:12:43.964Z,60.13
2022-09-27T09:14:18.657Z,60.37
2022-09-27T09:15:55.536Z,60.31
2022-09-27T09:17:45.048Z,60.10
2022-09-27T09:19:16.684Z,60.19
2022-09-27T09:21:10.123Z,60.16
2022-09-27T09:22:41.592Z,60.14
2022-09-27T09:24:34.937Z,59.84
2022-09-27T09:26:06.442Z,59.80
2022-09-27T09:27:47.395Z,60.00
2022-09-27T09:29:18.890Z,60.07
2022-09-27T09:30:53.413Z,60.27
2022-09-27T09:32:25.486Z,60.08
2022-09-27T09:34:02.244Z,60.15
2022-09-27T09:35:34.159Z,59.87
2022-09-27T09:37:13.203Z,60.07
2022-09-27T09:38:45.589Z,59.84
2022-09-27T09:40:43.205Z,59.64
2022-09-27T09:42:16.046Z,59.54
2022-09-27T09:43:48.788Z,59.41
2022-09-27T09:45:20.587Z,59.51
2022-09-27T09:46:53.614Z,59.32
2022-09-27T09:48:44.970Z,59.25
2022-09-27T09:50:17.397Z,58.96
2022-09-27T09:51:50.816Z,59.03
2022-09-27T09:53:30.307Z,58.86
2022-09-27T09:55:13.970Z,59.06
2022-09-27T09:56:47.781Z,58.93
2022-09-27T09:58:37.716Z,59.12
2022-09-27T10:00:19.088Z,59.04
2022-09-27T10:01:50.924Z,59.08
2022-09-27T10:03:23.137Z,59.02
2022-09-27T10:04:54.827Z,58.70
2022-09-27T10:06:26.551Z,58.92
2022-09-27T10:07:59.497Z,59.07
2022-09-27T10:09:31.188Z,59.04
2022-09-27T10:11:02.912Z,59.08
2022-09-27T10:12:34.763Z,58.89
2022-09-27T10:14:09.290Z,58.85
2022-09-27T10:15:40.877Z,58.93
2022-09-27T10:17:14.776Z,58.90
2022-09-27T10:18:49.897Z,59.10
2022-09-27T10:20:24.676Z,59.04
2022-09-27T10:21:58.818Z,59.15
2022-09-27T10:23:31.546Z,59.06
2022-09-27T10:25:04.476Z,59.13
2022-09-27T10:26:36.737Z,59.18
2022-09-27T10:28:08.530Z,59.14
2022-09-27T10:29:40.629Z,59.02
2022-09-27T10:31:16.268Z,59.12
2022-09-27T10:32:48.156Z,59.14
2022-09-27T10:34:26.629Z,58.90
2022-09-27T10:36:00.770Z,58.99
2022-09-27T10:37:32.337Z,58.87
2022-09-27T10:39:05.017Z,58.77
2022-09-27T10:40:36.882Z,58.60
2022-09-27T10:42:20.349Z,58.75
2022-09-27T10:43:52.288Z,58.53
2022-09-27T10:45:29.881Z,58.61
2022-09-27T10:47:06.603Z,58.56
2022-09-27T10:48:41.468Z,58.88
2022-09-27T10:50:38.622Z,58.79
2022-09-27T10:52:14.048Z,58.78
2022-09-27T10:53:46.334Z,58.64
2022-09-27T10:55:29.359Z,58.82
2022-09-27T10:57:01.056Z,58.58
2022-09-27T10:58:36.481Z,58.40
2022-09-27T11:00:24.754Z,58.04
2022-09-27T11:01:56.570Z,57.97
2022-09-27T11:03:29.182Z,57.63
2022-09-27T11:05:04.028Z,57.69
2022-09-27T11:06:38.518Z,57.68
2022-09-27T11:08:23.290Z,57.46
2022-09-27T11:09:56.545Z,57.27
2022-09-27T11:11:28.761Z,56.91
2022-09-27T11:13:19.233Z,56.80
2022-09-27T11:14:55.498Z,56.66
2022-09-27T11:16:46.025Z,56.10
2022-09-27T11:18:23.881Z,55.80
2022-09-27T11:20:02.293Z,55.54
2022-09-27T11:21:52.619Z,55.50
2022-09-27T11:23:47.088Z,55.42
2022-09-27T11:25:40.045Z,54.96
2022-09-27T11:27:15.465Z,55.15
2022-09-27T11:28:57.970Z,54.70
2022-09-27T11:30:36.865Z,54.54
2022-09-27T11:32:23.892Z,54.48
2022-09-27T11:33:55.596Z,54.42
2022-09-27T11:35:33.421Z,53.98
2022-09-27T11:37:07.999Z,54.19
2022-09-27T11:38:52.658Z,53.75
2022-09-27T11:40:27.998Z,53.43
2022-09-27T11:42:04.441Z,53.28
2022-09-27T11:43:39.098Z,53.46
2022-09-27T11:45:45.201Z,53.34
2022-09-27T11:47:22.448Z,53.50
2022-09-27T11:49:06.715Z,53.01
2022-09-27T11:50:57.003Z,52.91
2022-09-27T11:52:34.744Z,52.63
2022-09-27T11:54:25.444Z,52.74
2022-09-27T11:56:17.296Z,52.73
2022-09-27T11:57:49.758Z,53.06
2022-09-27T11:59:40.426Z,52.96
2022-09-27T12:01:23.028Z,52.98
2022-09-27T12:03:11.624Z,52.86
2022-09-27T12:04:49.825Z,52.71
2022-09-27T12:06:35.376Z,52.76
2022-09-27T12:08:26.066Z,52.91
2022-09-27T12:10:00.089Z,52.79
2022-09-27T12:11:31.992Z,52.49
2022-09-27T12:13:04.506Z,52.63
2022-09-27T12:14:36.253Z,52.59
2022-09-27T12:16:08.025Z,52.16
2022-09-27T12:17:44.008Z,51.93
2022-09-27T12:19:19.659Z,52.01
2022-09-27T12:20:51.915Z,51.90
2022-09-27T12:22:56.920Z,52.04
2022-09-27T12:24:25.500Z,51.98
2022-09-27T12:25:59.440Z,51.77
2022-09-27T12:27:35.114Z,51.59
2022-09-27T12:29:11.135Z,51.78
2022-09-27T12:30:43.397Z,51.45
2022-09-27T12:32:17.444Z,51.52
2022-09-27T12:33:58.231Z,51.64
2022-09-27T12:35:31.320Z,51.19
2022-09-27T12:37:11.822Z,51.19
2022-09-27T12:38:43.526Z,51.34
2022-09-27T12:40:27.418Z,50.94
2022-09-27T12:42:02.461Z,51.09
2022-09-27T12:43:35.512Z,50.97
2022-09-27T12:45:11.241Z,50.58
2022-09-27T12:47:02.131Z,50.47
2022-09-27T12:48:39.457Z,50.86
2022-09-27T12:50:46.648Z,50.69
2022-09-27T12:52:23.602Z,50.70
2022-09-27T12:53:59.543Z,50.61
2022-09-27T12:55:45.689Z,50.23
2022-09-27T12:57:24.329Z,50.39
2022-09-27T12:59:02.138Z,50.10
2022-09-27T13:00:36.824Z,50.13
2022-09-27T13:02:08.926Z,49.92
2022-09-27T13:03:47.458Z,50.06
2022-09-27T13:05:19.017Z,49.85
2022-09-27T13:07:05.213Z,50.07
2022-09-27T13:08:55.404Z,50.02
2022-09-27T13:10:27.236Z,49.97
2022-09-27T13:12:01.659Z,49.62
2022-09-27T13:13:36.539Z,49.76
2022-09-27T13:15:15.629Z,49.66
2022-09-27T13:16:47.413Z,49.49
2022-09-27T13:18:38.964Z,49.17
2022-09-27T13:20:44.576Z,49.32
2022-09-27T13:22:28.244Z,49.23
2022-09-27T13:24:00.288Z,48.88
2022-09-27T13:25:55.916Z,48.99
2022-09-27T13:27:28.494Z,48.69
2022-09-27T13:29:02.209Z,49.03
2022-09-27T13:30:37.008Z,49.06
2022-09-27T13:32:14.928Z,49.10
2022-09-27T13:33:47.302Z,48.81
2022-09-27T13:35:20.188Z,48.94
2022-09-27T13:36:52.324Z,48.85
2022-09-27T13:38:26.372Z,48.63
2022-09-27T13:40:30.503Z,48.57
2022-09-27T13:42:22.256Z,48.78
2022-09-27T13:43:58.287Z,48.49
2022-09-27T13:45:32.535Z,48.28
2022-09-27T13:47:16.063Z,48.33
2022-09-27T13:48:55.397Z,48.33
2022-09-27T13:50:29.330Z,48.21
2022-09-27T13:52:02.912Z,48.19
2022-09-27T13:53:35.978Z,48.16
2022-09-27T13:55:28.065Z,48.24
2022-09-27T13:56:59.931Z,48.18
2022-09-27T13:58:40.880Z,48.17
2022-09-27T14:00:20.089Z,47.87
2022-09-27T14:01:52.629Z,47.92
2022-09-27T14:03:26.617Z,47.82
2022-09-27T14:04:58.524Z,48.09
2022-09-27T14:06:32.311Z,48.18
2022-09-27T14:08:04.449Z,47.95
2022-09-27T14:09:38.499Z,47.93
2022-09-27T14:11:39.110Z,47.79
2022-09-27T14:13:10.748Z,47.83
2022-09-27T14:14:43.039Z,47.99
2022-09-27T14:16:15.105Z,47.94
2022-09-27T14:17:46.669Z,48.05
2022-09-27T14:19:25.726Z,48.26
2022-09-27T14:21:12.273Z,47.82
2022-09-27T14:22:44.380Z,47.78
2022-09-27T14:24:36.572Z,47.85
2022-09-27T14:26:19.545Z,48.06
2022-09-27T14:27:51.048Z,48.28
2022-09-27T14:29:22.619Z,48.09
2022-09-27T14:31:06.464Z,48.20
2022-09-27T14:32:47.042Z,47.96
2022-09-27T14:34:18.550Z,48.19
2022-09-27T14:36:08.975Z,48.02
2022-09-27T14:37:40.647Z,48.42
2022-09-27T14:39:13.641Z,48.30
2022-09-27T14:40:55.034Z,48.31
2022-09-27T14:42:28.347Z,48.23
2022-09-27T14:44:00.077Z,48.51
2022-09-27T14:45:37.371Z,48.34
2022-09-27T14:47:09.456Z,48.44
2022-09-27T14:48:42.256Z,48.67
2022-09-27T14:50:18.175Z,48.73
2022-09-27T14:51:56.290Z,48.53
2022-09-27T14:53:28.885Z,48.66
2022-09-27T14:55:08.444Z,48.60
2022-09-27T14:56:40.141Z,48.54
2022-09-27T14:58:35.773Z,48.57
2022-09-27T15:00:17.717Z,48.89
2022-09-27T15:01:50.604Z,48.82
2022-09-27T15:03:30.596Z,48.84
2022-09-27T15:05:05.700Z,49.07
2022-09-27T15:06:37.423Z,49.42
2022-09-27T15:08:10.675Z,49.30
2022-09-27T15:09:42.774Z,49.40
2022-09-27T15:11:14.537Z,49.48
2022-09-27T15:12:48.242Z,49.38
2022-09-27T15:14:23.692Z,49.53
2022-09-27T15:15:56.385Z,49.53
2022-09-27T15:17:29.073Z,49.60
2022-09-27T15:19:02.546Z,49.67
2022-09-27T15:20:35.457Z,49.84
2022-09-27T15:22:22.963Z,49.72
2022-09-27T15:23:56.163Z,49.92
2022-09-27T15:25:39.914Z,49.91
2022-09-27T15:27:18.330Z,49.97
2022-09-27T15:28:50.816Z,49.92
2022-09-27T15:30:29.672Z,49.99
2022-09-27T15:32:05.463Z,49.89
2022-09-27T15:33:37.891Z,50.01
2022-09-27T15:35:10.126Z,50.16
2022-09-27T15:36:42.458Z,50.18
2022-09-27T15:38:22.666Z,50.17
2022-09-27T15:39:54.637Z,49.99
2022-09-27T15:41:26.575Z,50.01
2022-09-27T15:42:59.887Z,49.99
2022-09-27T15:44:51.340Z,50.06
2022-09-27T15:46:37.853Z,50.08
2022-09-27T15:48:16.937Z,50.05
2022-09-27T15:49:50.831Z,50.20
2022-09-27T15:51:52.050Z,50.22
2022-09-27T15:53:35.757Z,50.36
2022-09-27T15:55:09.417Z,50.44
2022-09-27T15:56:41.054Z,50.56
2022-09-27T15:58:17.128Z,50.80
2022-09-27T15:59:49.497Z,50.98
2022-09-27T16:01:21.664Z,51.06
2022-09-27T16:02:54.460Z,51.34
2022-09-27T16:04:26.608Z,51.49
2022-09-27T16:05:58.735Z,51.54
2022-09-27T16:07:32.603Z,51.42
2022-09-27T16:09:07.055Z,51.50
2022-09-27T16:10:51.645Z,51.54
2022-09-27T16:12:26.292Z,51.65
2022-09-27T16:13:58.117Z,51.73
2022-09-27T16:15:29.841Z,51.82
2022-09-27T16:17:01.651Z,51.90
2022-09-27T16:18:33.777Z,51.88
2022-09-27T16:20:06.002Z,52.04
2022-09-27T16:21:38.063Z,52.07
2022-09-27T16:23:09.885Z,52.07
2022-09-27T16:24:42.561Z,52.14
2022-09-27T16:26:14.508Z,52.26
2022-09-27T16:27:47.048Z,52.28
2022-09-27T16:29:19.361Z,52.49
2022-09-27T16:30:51.071Z,52.56
2022-09-27T16:32:24.085Z,52.48
2022-09-27T16:33:55.930Z,52.56
2022-09-27T16:35:29.066Z,52.58
2022-09-27T16:37:04.827Z,52.68
2022-09-27T16:38:37.299Z,52.61
2022-09-27T16:40:09.638Z,52.62
2022-09-27T16:41:44.275Z,52.51
2022-09-27T16:43:15.888Z,52.75
2022-09-27T16:44:49.549Z,52.75
2022-09-27T16:46:22.245Z,53.03
2022-09-27T16:47:56.730Z,53.00
2022-09-27T16:49:47.371Z,53.35
2022-09-27T16:51:39.122Z,53.43
2022-09-27T16:53:10.990Z,53.61
2022-09-27T16:54:42.649Z,53.92
2022-09-27T16:56:14.282Z,54.12
2022-09-27T16:57:46.546Z,54.16
2022-09-27T16:59:23.631Z,54.16
2022-09-27T17:01:01.418Z,54.29
2022-09-27T17:02:34.327Z,54.40
2022-09-27T17:04:06.356Z,54.33
2022-09-27T17:05:38.466Z,54.27
2022-09-27T17:07:10.147Z,54.22
2022-09-27T17:08:42.343Z,54.28
2022-09-27T17:10:15.484Z,54.32
2022-09-27T17:11:47.289Z,54.02
2022-09-27T17:13:18.921Z,53.99
2022-09-27T17:14:50.867Z,54.30
2022-09-27T17:16:23.120Z,54.11
2022-09-27T17:17:55.224Z,54.23
2022-09-27T17:19:27.524Z,54.15
2022-09-27T17:21:03.812Z,54.32
2022-09-27T17:22:38.097Z,54.43
2022-09-27T17:24:10.397Z,54.50
2022-09-27T17:25:42.091Z,54.44
2022-09-27T17:27:13.797Z,54.49
2022-09-27T17:28:45.955Z,54.73
2022-09-27T17:30:17.824Z,54.89
2022-09-27T17:31:49.406Z,54.73
2022-09-27T17:33:21.269Z,54.60
2022-09-27T17:34:52.997Z,54.84
2022-09-27T17:36:37.566Z,54.93
2022-09-27T17:38:09.172Z,54.90
2022-09-27T17:39:42.282Z,54.92
2022-09-27T17:41:14.373Z,55.07
2022-09-27T17:42:54.816Z,55.17
2022-09-27T17:44:27.350Z,55.31
2022-09-27T17:46:03.587Z,55.23
2022-09-27T17:47:53.854Z,55.42
2022-09-27T17:49:44.316Z,55.55
2022-09-27T17:51:15.921Z,55.45
2022-09-27T17:52:47.494Z,55.74
2022-09-27T17:54:19.880Z,55.49
2022-09-27T17:56:00.512Z,55.45
2022-09-27T17:57:32.166Z,55.60
2022-09-27T17:59:03.905Z,55.57
2022-09-27T18:00:35.628Z,55.76
2022-09-27T18:02:10.835Z,55.36
2022-09-27T18:03:48.407Z,55.66
2022-09-27T18:05:21.568Z,55.55
2022-09-27T18:06:53.067Z,55.65
2022-09-27T18:08:33.425Z,55.47
2022-09-27T18:10:05.330Z,55.61
2022-09-27T18:11:37.629Z,55.56
2022-09-27T18:13:09.278Z,55.62
2022-09-27T18:14:41.026Z,55.75
2022-09-27T18:16:14.410Z,55.68
2022-09-27T18:17:46.228Z,55.53
2022-09-27T18:19:18.220Z,55.49
2022-09-27T18:20:49.920Z,55.75
2022-09-27T18:22:21.657Z,55.77
2022-09-27T18:23:53.901Z,55.79
2022-09-27T18:25:26.678Z,56.00
2022-09-27T18:27:00.018Z,56.12
2022-09-27T18:28:34.396Z,56.14
2022-09-27T18:30:06.382Z,56.20
2022-09-27T18:31:40.258Z,56.27
2022-09-27T18:33:13.030Z,56.08
2022-09-27T18:34:44.961Z,55.98
2022-09-27T18:36:17.610Z,56.18
2022-09-27T18:37:49.682Z,56.24
2022-09-27T18:39:21.263Z,56.14
2022-09-27T18:40:59.770Z,56.26
2022-09-27T18:42:33.482Z,56.38
2022-09-27T18:44:05.467Z,56.41
2022-09-27T18:45:38.259Z,56.55
2022-09-27T18:47:09.991Z,56.33
2022-09-27T18:48:41.759Z,56.31
2022-09-27T18:50:13.593Z,56.43
2022-09-27T18:51:47.332Z,56.08
2022-09-27T18:53:21.805Z,56.10
2022-09-27T18:54:53.444Z,56.21
2022-09-27T18:56:26.138Z,56.42
2022-09-27T18:57:57.754Z,56.30
2022-09-27T18:59:30.580Z,56.48
2022-09-27T19:01:02.738Z,56.38
2022-09-27T19:02:34.519Z,56.52
2022-09-27T19:04:09.802Z,56.56
2022-09-27T19:05:41.555Z,56.65
2022-09-27T19:07:13.491Z,56.66
2022-09-27T19:08:45.175Z,56.83
2022-09-27T19:10:16.804Z,56.85
2022-09-27T19:11:48.561Z,56.88
2022-09-27T19:13:21.495Z,56.92
2022-09-27T19:14:55.657Z,56.84
2022-09-27T19:16:27.834Z,56.91
2022-09-27T19:17:59.719Z,56.84
2022-09-27T19:19:31.703Z,56.97
2022-09-27T19:21:08.397Z,57.21
2022-09-27T19:22:41.938Z,56.91
2022-09-27T19:24:14.162Z,57.11
2022-09-27T19:25:46.115Z,56.99
2022-09-27T19:27:17.656Z,57.08
2022-09-27T19:28:49.528Z,56.97
2022-09-27T19:30:21.169Z,56.77
2022-09-27T19:31:52.819Z,57.18
2022-09-27T19:33:24.467Z,57.06
2022-09-27T19:34:56.079Z,57.00
2022-09-27T19:36:27.890Z,57.05
2022-09-27T19:37:59.531Z,56.97
2022-09-27T19:39:31.250Z,56.88
2022-09-27T19:41:03.757Z,56.85
2022-09-27T19:42:35.435Z,57.00
2022-09-27T19:44:09.956Z,56.91
2022-09-27T19:45:41.719Z,56.93
2022-09-27T19:47:13.341Z,57.01
2022-09-27T19:48:45.844Z,56.99
2022-09-27T19:50:17.554Z,56.97
2022-09-27T19:51:49.342Z,57.10
2022-09-27T19:53:21.050Z,57.03
2022-09-27T19:54:52.908Z,57.31
2022-09-27T19:56:24.574Z,57.25
2022-09-27T19:57:56.524Z,57.29
2022-09-27T19:59:28.302Z,57.37
2022-09-27T20:01:02.646Z,57.16
2022-09-27T20:02:34.540Z,57.23
2022-09-27T20:04:06.286Z,57.08
2022-09-27T20:05:37.901Z,56.97
2022-09-27T20:07:09.509Z,57.10
2022-09-27T20:08:41.458Z,57.05
2022-09-27T20:10:13.712Z,57.02
2022-09-27T20:11:46.346Z,57.27
2022-09-27T20:13:17.897Z,57.35
2022-09-27T20:14:49.964Z,57.46
2022-09-27T20:16:22.428Z,57.33
2022-09-27T20:17:54.135Z,57.43
2022-09-27T20:19:25.768Z,57.45
2022-09-27T20:21:01.315Z,57.41
2022-09-27T20:22:33.049Z,57.32
2022-09-27T20:24:04.752Z,57.39
2022-09-27T20:25:39.961Z,57.61
2022-09-27T20:27:14.491Z,57.60
2022-09-27T20:28:49.837Z,57.52
2022-09-27T20:30:21.811Z,57.41
2022-09-27T20:32:22.518Z,57.18
2022-09-27T20:33:46.866Z,57.31
2022-09-27T20:35:18.711Z,57.42
2022-09-27T20:36:53.128Z,57.48
2022-09-27T20:38:24.703Z,57.54